sensor_id;sensor_type;location;lat;lon;timestamp;P1;durP1;ratioP1;P2;durP2;ratioP2
78875;SDS011;68253;52.506;5.486;2023-04-29T00:00:21;12.05;;;4.78;;
78875;SDS011;68253;52.506;5.486;2023-04-29T00:02:47;15.38;;;6.63;;
78875;SDS011;68253;52.506;5.486;2023-04-29T00:05:13;13.48;;;5.80;;
78875;SDS011;68253;52.506;5.486;2023-04-29T00:07:39;13.20;;;4.95;;
78875;SDS011;68253;52.506;5.486;2023-04-29T00:10:06;14.52;;;5.95;;
78875;SDS011;68253;52.506;5.486;2023-04-29T00:12:33;14.20;;;5.40;;
78875;SDS011;68253;52.506;5.486;2023-04-29T00:14:59;13.20;;;5.13;;
78875;SDS011;68253;52.506;5.486;2023-04-29T00:17:27;12.23;;;4.18;;
78875;SDS011;68253;52.506;5.486;2023-04-29T00:19:53;14.65;;;6.50;;
78875;SDS011;68253;52.506;5.486;2023-04-29T00:22:19;12.70;;;4.78;;
78875;SDS011;68253;52.506;5.486;2023-04-29T00:24:47;12.80;;;5.47;;
78875;SDS011;68253;52.506;5.486;2023-04-29T00:27:13;12.10;;;5.10;;
78875;SDS011;68253;52.506;5.486;2023-04-29T00:29:39;15.63;;;7.10;;
78875;SDS011;68253;52.506;5.486;2023-04-29T00:32:05;13.60;;;4.88;;
78875;SDS011;68253;52.506;5.486;2023-04-29T00:34:31;15.27;;;6.07;;
78875;SDS011;68253;52.506;5.486;2023-04-29T00:36:57;14.80;;;4.93;;
78875;SDS011;68253;52.506;5.486;2023-04-29T00:39:24;11.65;;;4.65;;
78875;SDS011;68253;52.506;5.486;2023-04-29T00:41:50;13.52;;;5.80;;
78875;SDS011;68253;52.506;5.486;2023-04-29T00:44:17;12.88;;;4.82;;
78875;SDS011;68253;52.506;5.486;2023-04-29T00:46:43;12.07;;;4.22;;
78875;SDS011;68253;52.506;5.486;2023-04-29T00:49:09;15.68;;;6.72;;
78875;SDS011;68253;52.506;5.486;2023-04-29T00:51:38;12.63;;;5.00;;
78875;SDS011;68253;52.506;5.486;2023-04-29T00:54:06;13.73;;;5.03;;
78875;SDS011;68253;52.506;5.486;2023-04-29T00:56:34;12.05;;;4.55;;
78875;SDS011;68253;52.506;5.486;2023-04-29T00:59:01;15.88;;;6.60;;
78875;SDS011;68253;52.506;5.486;2023-04-29T01:01:29;13.27;;;5.10;;
78875;SDS011;68253;52.506;5.486;2023-04-29T01:03:56;10.70;;;3.95;;
78875;SDS011;68253;52.506;5.486;2023-04-29T01:07:11;12.20;;;4.50;;
78875;SDS011;68253;52.506;5.486;2023-04-29T01:14:57;11.75;;;4.47;;
78875;SDS011;68253;52.506;5.486;2023-04-29T01:17:27;12.93;;;4.53;;
78875;SDS011;68253;52.506;5.486;2023-04-29T01:20:02;11.50;;;4.65;;
78875;SDS011;68253;52.506;5.486;2023-04-29T01:22:31;13.00;;;5.05;;
78875;SDS011;68253;52.506;5.486;2023-04-29T01:24:57;12.07;;;4.78;;
78875;SDS011;68253;52.506;5.486;2023-04-29T01:30:16;14.43;;;6.00;;
78875;SDS011;68253;52.506;5.486;2023-04-29T01:33:02;12.77;;;5.45;;
78875;SDS011;68253;52.506;5.486;2023-04-29T01:38:38;14.30;;;6.35;;
78875;SDS011;68253;52.506;5.486;2023-04-29T01:41:41;17.35;;;7.15;;
78875;SDS011;68253;52.506;5.486;2023-04-29T01:44:16;14.43;;;6.45;;
78875;SDS011;68253;52.506;5.486;2023-04-29T01:46:50;15.85;;;5.90;;
78875;SDS011;68253;52.506;5.486;2023-04-29T01:49:19;24.17;;;10.38;;
78875;SDS011;68253;52.506;5.486;2023-04-29T01:54:20;13.10;;;5.60;;
78875;SDS011;68253;52.506;5.486;2023-04-29T01:56:47;14.90;;;5.90;;
78875;SDS011;68253;52.506;5.486;2023-04-29T01:59:20;15.32;;;6.38;;
78875;SDS011;68253;52.506;5.486;2023-04-29T02:01:56;13.82;;;5.93;;
78875;SDS011;68253;52.506;5.486;2023-04-29T02:04:24;15.88;;;6.10;;
78875;SDS011;68253;52.506;5.486;2023-04-29T02:06:50;12.65;;;6.07;;
78875;SDS011;68253;52.506;5.486;2023-04-29T02:09:19;14.00;;;5.25;;
78875;SDS011;68253;52.506;5.486;2023-04-29T02:11:51;16.70;;;7.22;;
78875;SDS011;68253;52.506;5.486;2023-04-29T02:14:17;13.10;;;6.03;;
78875;SDS011;68253;52.506;5.486;2023-04-29T02:16:44;13.55;;;5.03;;
78875;SDS011;68253;52.506;5.486;2023-04-29T02:19:10;14.43;;;5.38;;
78875;SDS011;68253;52.506;5.486;2023-04-29T02:21:38;13.40;;;5.75;;
78875;SDS011;68253;52.506;5.486;2023-04-29T02:24:05;13.57;;;5.47;;
78875;SDS011;68253;52.506;5.486;2023-04-29T02:26:31;18.95;;;8.60;;
78875;SDS011;68253;52.506;5.486;2023-04-29T02:28:59;16.02;;;7.88;;
78875;SDS011;68253;52.506;5.486;2023-04-29T02:31:25;18.33;;;7.32;;
78875;SDS011;68253;52.506;5.486;2023-04-29T02:33:53;14.57;;;5.90;;
78875;SDS011;68253;52.506;5.486;2023-04-29T02:36:20;16.88;;;6.53;;
78875;SDS011;68253;52.506;5.486;2023-04-29T02:38:46;13.75;;;5.63;;
78875;SDS011;68253;52.506;5.486;2023-04-29T02:41:18;15.50;;;6.20;;
78875;SDS011;68253;52.506;5.486;2023-04-29T02:43:47;19.42;;;8.30;;
78875;SDS011;68253;52.506;5.486;2023-04-29T02:46:16;14.30;;;6.30;;
78875;SDS011;68253;52.506;5.486;2023-04-29T02:48:43;14.40;;;6.28;;
78875;SDS011;68253;52.506;5.486;2023-04-29T02:51:10;15.68;;;6.10;;
78875;SDS011;68253;52.506;5.486;2023-04-29T02:53:37;14.70;;;6.43;;
78875;SDS011;68253;52.506;5.486;2023-04-29T02:56:03;13.32;;;5.80;;
78875;SDS011;68253;52.506;5.486;2023-04-29T02:58:29;12.52;;;5.68;;
78875;SDS011;68253;52.506;5.486;2023-04-29T03:00:56;16.48;;;6.47;;
78875;SDS011;68253;52.506;5.486;2023-04-29T03:03:22;12.45;;;5.78;;
78875;SDS011;68253;52.506;5.486;2023-04-29T03:05:48;11.32;;;4.93;;
78875;SDS011;68253;52.506;5.486;2023-04-29T03:08:14;15.40;;;7.30;;
78875;SDS011;68253;52.506;5.486;2023-04-29T03:10:41;13.23;;;5.03;;
78875;SDS011;68253;52.506;5.486;2023-04-29T03:13:07;15.85;;;5.97;;
78875;SDS011;68253;52.506;5.486;2023-04-29T03:15:34;14.85;;;5.82;;
78875;SDS011;68253;52.506;5.486;2023-04-29T03:18:01;13.00;;;5.15;;
78875;SDS011;68253;52.506;5.486;2023-04-29T03:20:29;18.60;;;7.07;;
78875;SDS011;68253;52.506;5.486;2023-04-29T03:22:55;13.00;;;5.38;;
78875;SDS011;68253;52.506;5.486;2023-04-29T03:25:21;11.80;;;5.15;;
78875;SDS011;68253;52.506;5.486;2023-04-29T03:27:48;14.32;;;4.82;;
78875;SDS011;68253;52.506;5.486;2023-04-29T03:30:14;13.05;;;5.45;;
78875;SDS011;68253;52.506;5.486;2023-04-29T03:32:47;15.77;;;6.72;;
78875;SDS011;68253;52.506;5.486;2023-04-29T03:35:13;13.35;;;5.60;;
78875;SDS011;68253;52.506;5.486;2023-04-29T03:37:45;11.18;;;4.35;;
78875;SDS011;68253;52.506;5.486;2023-04-29T03:40:22;12.07;;;4.80;;
78875;SDS011;68253;52.506;5.486;2023-04-29T03:42:49;15.15;;;5.53;;
78875;SDS011;68253;52.506;5.486;2023-04-29T03:47:45;12.65;;;4.57;;
78875;SDS011;68253;52.506;5.486;2023-04-29T03:50:11;10.98;;;3.95;;
78875;SDS011;68253;52.506;5.486;2023-04-29T03:52:37;13.02;;;4.70;;
78875;SDS011;68253;52.506;5.486;2023-04-29T03:55:10;12.40;;;5.38;;
78875;SDS011;68253;52.506;5.486;2023-04-29T03:57:37;14.88;;;6.85;;
78875;SDS011;68253;52.506;5.486;2023-04-29T04:00:04;11.43;;;5.00;;
78875;SDS011;68253;52.506;5.486;2023-04-29T04:02:38;13.48;;;5.15;;
78875;SDS011;68253;52.506;5.486;2023-04-29T04:05:05;15.57;;;6.00;;
78875;SDS011;68253;52.506;5.486;2023-04-29T04:07:31;13.80;;;5.13;;
78875;SDS011;68253;52.506;5.486;2023-04-29T04:10:24;14.27;;;6.13;;
78875;SDS011;68253;52.506;5.486;2023-04-29T04:12:51;17.00;;;7.22;;
78875;SDS011;68253;52.506;5.486;2023-04-29T04:15:17;15.20;;;6.65;;
78875;SDS011;68253;52.506;5.486;2023-04-29T04:17:43;15.50;;;6.82;;
78875;SDS011;68253;52.506;5.486;2023-04-29T04:20:09;13.75;;;5.65;;
78875;SDS011;68253;52.506;5.486;2023-04-29T04:22:36;14.30;;;5.55;;
78875;SDS011;68253;52.506;5.486;2023-04-29T04:25:19;12.80;;;4.75;;
78875;SDS011;68253;52.506;5.486;2023-04-29T04:27:45;16.05;;;6.57;;
78875;SDS011;68253;52.506;5.486;2023-04-29T04:30:21;16.30;;;6.78;;
78875;SDS011;68253;52.506;5.486;2023-04-29T04:32:47;16.13;;;6.43;;
78875;SDS011;68253;52.506;5.486;2023-04-29T04:35:14;15.20;;;5.40;;
78875;SDS011;68253;52.506;5.486;2023-04-29T04:37:40;11.82;;;5.15;;
78875;SDS011;68253;52.506;5.486;2023-04-29T04:40:06;14.48;;;5.43;;
78875;SDS011;68253;52.506;5.486;2023-04-29T04:42:52;13.73;;;5.00;;
78875;SDS011;68253;52.506;5.486;2023-04-29T04:45:18;13.82;;;5.85;;
78875;SDS011;68253;52.506;5.486;2023-04-29T04:47:49;16.60;;;6.55;;
78875;SDS011;68253;52.506;5.486;2023-04-29T04:52:54;16.17;;;5.28;;
78875;SDS011;68253;52.506;5.486;2023-04-29T04:55:39;14.10;;;5.28;;
78875;SDS011;68253;52.506;5.486;2023-04-29T04:58:07;13.80;;;4.95;;
78875;SDS011;68253;52.506;5.486;2023-04-29T05:00:33;15.27;;;4.82;;
78875;SDS011;68253;52.506;5.486;2023-04-29T05:02:59;14.45;;;5.43;;
78875;SDS011;68253;52.506;5.486;2023-04-29T05:05:25;11.30;;;4.70;;
78875;SDS011;68253;52.506;5.486;2023-04-29T05:07:51;14.93;;;5.80;;
78875;SDS011;68253;52.506;5.486;2023-04-29T05:10:23;15.43;;;6.13;;
78875;SDS011;68253;52.506;5.486;2023-04-29T05:12:52;16.05;;;6.25;;
78875;SDS011;68253;52.506;5.486;2023-04-29T05:15:19;15.65;;;5.20;;
78875;SDS011;68253;52.506;5.486;2023-04-29T05:17:48;15.35;;;5.70;;
78875;SDS011;68253;52.506;5.486;2023-04-29T05:20:14;15.57;;;5.85;;
78875;SDS011;68253;52.506;5.486;2023-04-29T05:22:40;18.42;;;6.70;;
78875;SDS011;68253;52.506;5.486;2023-04-29T05:25:06;13.27;;;4.72;;
78875;SDS011;68253;52.506;5.486;2023-04-29T05:27:34;15.52;;;5.40;;
78875;SDS011;68253;52.506;5.486;2023-04-29T05:30:02;16.20;;;6.28;;
78875;SDS011;68253;52.506;5.486;2023-04-29T05:32:29;11.48;;;4.57;;
78875;SDS011;68253;52.506;5.486;2023-04-29T05:34:55;11.95;;;3.95;;
78875;SDS011;68253;52.506;5.486;2023-04-29T05:37:21;12.30;;;5.05;;
78875;SDS011;68253;52.506;5.486;2023-04-29T05:40:00;14.85;;;5.15;;
78875;SDS011;68253;52.506;5.486;2023-04-29T05:42:27;12.95;;;3.80;;
78875;SDS011;68253;52.506;5.486;2023-04-29T05:44:53;15.50;;;4.93;;
78875;SDS011;68253;52.506;5.486;2023-04-29T05:47:20;11.52;;;4.38;;
78875;SDS011;68253;52.506;5.486;2023-04-29T05:49:46;12.32;;;4.13;;
78875;SDS011;68253;52.506;5.486;2023-04-29T05:52:12;10.90;;;3.33;;
78875;SDS011;68253;52.506;5.486;2023-04-29T05:54:43;12.05;;;5.20;;
78875;SDS011;68253;52.506;5.486;2023-04-29T05:57:09;10.57;;;3.70;;
78875;SDS011;68253;52.506;5.486;2023-04-29T05:59:36;15.80;;;5.55;;
78875;SDS011;68253;52.506;5.486;2023-04-29T06:02:04;11.68;;;3.42;;
78875;SDS011;68253;52.506;5.486;2023-04-29T06:04:32;10.38;;;3.45;;
78875;SDS011;68253;52.506;5.486;2023-04-29T06:06:58;11.35;;;4.45;;
78875;SDS011;68253;52.506;5.486;2023-04-29T06:09:43;10.52;;;3.83;;
78875;SDS011;68253;52.506;5.486;2023-04-29T06:12:09;13.70;;;4.75;;
78875;SDS011;68253;52.506;5.486;2023-04-29T06:14:36;12.88;;;4.57;;
78875;SDS011;68253;52.506;5.486;2023-04-29T06:17:02;13.50;;;4.75;;
78875;SDS011;68253;52.506;5.486;2023-04-29T06:19:28;11.38;;;4.10;;
78875;SDS011;68253;52.506;5.486;2023-04-29T06:21:57;13.73;;;4.65;;
78875;SDS011;68253;52.506;5.486;2023-04-29T06:24:23;12.18;;;3.83;;
78875;SDS011;68253;52.506;5.486;2023-04-29T06:26:49;9.07;;;3.13;;
78875;SDS011;68253;52.506;5.486;2023-04-29T06:29:15;12.82;;;3.70;;
78875;SDS011;68253;52.506;5.486;2023-04-29T06:31:42;11.00;;;3.65;;
78875;SDS011;68253;52.506;5.486;2023-04-29T06:34:08;11.70;;;4.45;;
78875;SDS011;68253;52.506;5.486;2023-04-29T06:39:21;12.07;;;4.07;;
78875;SDS011;68253;52.506;5.486;2023-04-29T06:42:13;11.48;;;3.53;;
78875;SDS011;68253;52.506;5.486;2023-04-29T06:44:50;11.32;;;3.65;;
78875;SDS011;68253;52.506;5.486;2023-04-29T06:47:32;9.90;;;3.35;;
78875;SDS011;68253;52.506;5.486;2023-04-29T06:50:09;9.85;;;3.28;;
78875;SDS011;68253;52.506;5.486;2023-04-29T06:52:35;10.77;;;3.50;;
78875;SDS011;68253;52.506;5.486;2023-04-29T06:55:02;10.27;;;3.50;;
78875;SDS011;68253;52.506;5.486;2023-04-29T06:57:29;10.70;;;3.50;;
78875;SDS011;68253;52.506;5.486;2023-04-29T06:59:56;11.68;;;3.63;;
78875;SDS011;68253;52.506;5.486;2023-04-29T07:02:23;10.30;;;3.60;;
78875;SDS011;68253;52.506;5.486;2023-04-29T07:04:49;12.55;;;3.90;;
78875;SDS011;68253;52.506;5.486;2023-04-29T07:07:17;11.50;;;3.53;;
78875;SDS011;68253;52.506;5.486;2023-04-29T07:09:43;10.73;;;3.17;;
78875;SDS011;68253;52.506;5.486;2023-04-29T07:12:09;11.00;;;3.70;;
78875;SDS011;68253;52.506;5.486;2023-04-29T07:14:35;11.20;;;3.60;;
78875;SDS011;68253;52.506;5.486;2023-04-29T07:17:03;9.30;;;3.33;;
78875;SDS011;68253;52.506;5.486;2023-04-29T07:19:29;11.57;;;4.38;;
78875;SDS011;68253;52.506;5.486;2023-04-29T07:21:56;11.25;;;3.70;;
78875;SDS011;68253;52.506;5.486;2023-04-29T07:24:22;10.82;;;3.28;;
78875;SDS011;68253;52.506;5.486;2023-04-29T07:26:49;11.40;;;3.65;;
78875;SDS011;68253;52.506;5.486;2023-04-29T07:29:16;10.23;;;3.63;;
78875;SDS011;68253;52.506;5.486;2023-04-29T07:31:42;10.07;;;3.53;;
78875;SDS011;68253;52.506;5.486;2023-04-29T07:34:08;11.27;;;3.88;;
78875;SDS011;68253;52.506;5.486;2023-04-29T07:36:34;12.60;;;4.05;;
78875;SDS011;68253;52.506;5.486;2023-04-29T07:39:00;10.35;;;3.10;;
78875;SDS011;68253;52.506;5.486;2023-04-29T07:41:27;8.55;;;3.28;;
78875;SDS011;68253;52.506;5.486;2023-04-29T07:43:53;9.50;;;3.58;;
78875;SDS011;68253;52.506;5.486;2023-04-29T07:46:20;8.52;;;2.78;;
78875;SDS011;68253;52.506;5.486;2023-04-29T07:48:46;9.95;;;3.50;;
78875;SDS011;68253;52.506;5.486;2023-04-29T07:51:12;12.48;;;3.88;;
78875;SDS011;68253;52.506;5.486;2023-04-29T07:53:41;9.77;;;3.13;;
78875;SDS011;68253;52.506;5.486;2023-04-29T07:56:08;11.40;;;3.35;;
78875;SDS011;68253;52.506;5.486;2023-04-29T07:58:34;8.93;;;2.72;;
78875;SDS011;68253;52.506;5.486;2023-04-29T08:01:04;10.02;;;3.20;;
78875;SDS011;68253;52.506;5.486;2023-04-29T08:03:31;8.52;;;2.17;;
78875;SDS011;68253;52.506;5.486;2023-04-29T08:05:59;8.07;;;2.40;;
78875;SDS011;68253;52.506;5.486;2023-04-29T08:08:29;10.00;;;3.13;;
78875;SDS011;68253;52.506;5.486;2023-04-29T08:10:56;8.50;;;2.38;;
78875;SDS011;68253;52.506;5.486;2023-04-29T08:13:22;8.70;;;2.53;;
78875;SDS011;68253;52.506;5.486;2023-04-29T08:15:49;8.68;;;2.45;;
78875;SDS011;68253;52.506;5.486;2023-04-29T08:18:16;7.93;;;2.22;;
78875;SDS011;68253;52.506;5.486;2023-04-29T08:20:42;10.18;;;3.40;;
78875;SDS011;68253;52.506;5.486;2023-04-29T08:23:08;10.52;;;3.03;;
78875;SDS011;68253;52.506;5.486;2023-04-29T08:25:34;8.82;;;2.60;;
78875;SDS011;68253;52.506;5.486;2023-04-29T08:28:00;11.38;;;2.85;;
78875;SDS011;68253;52.506;5.486;2023-04-29T08:30:27;8.75;;;2.75;;
78875;SDS011;68253;52.506;5.486;2023-04-29T08:32:53;8.80;;;2.45;;
78875;SDS011;68253;52.506;5.486;2023-04-29T08:35:19;10.75;;;3.08;;
78875;SDS011;68253;52.506;5.486;2023-04-29T08:37:45;11.15;;;3.55;;
78875;SDS011;68253;52.506;5.486;2023-04-29T08:40:12;8.18;;;2.95;;
78875;SDS011;68253;52.506;5.486;2023-04-29T08:42:38;9.70;;;3.38;;
78875;SDS011;68253;52.506;5.486;2023-04-29T08:45:04;9.10;;;2.45;;
78875;SDS011;68253;52.506;5.486;2023-04-29T08:47:32;9.48;;;3.10;;
78875;SDS011;68253;52.506;5.486;2023-04-29T08:50:00;8.35;;;2.42;;
78875;SDS011;68253;52.506;5.486;2023-04-29T08:52:31;9.77;;;3.10;;
78875;SDS011;68253;52.506;5.486;2023-04-29T08:55:00;9.60;;;3.33;;
78875;SDS011;68253;52.506;5.486;2023-04-29T08:57:28;8.15;;;2.65;;
78875;SDS011;68253;52.506;5.486;2023-04-29T08:59:57;10.27;;;3.28;;
78875;SDS011;68253;52.506;5.486;2023-04-29T09:02:25;10.05;;;2.60;;
78875;SDS011;68253;52.506;5.486;2023-04-29T09:04:56;8.98;;;2.53;;
78875;SDS011;68253;52.506;5.486;2023-04-29T09:07:34;10.38;;;3.03;;
78875;SDS011;68253;52.506;5.486;2023-04-29T09:10:01;9.70;;;2.88;;
78875;SDS011;68253;52.506;5.486;2023-04-29T09:12:29;7.70;;;2.38;;
78875;SDS011;68253;52.506;5.486;2023-04-29T09:14:55;7.78;;;2.70;;
78875;SDS011;68253;52.506;5.486;2023-04-29T09:22:52;8.73;;;2.75;;
78875;SDS011;68253;52.506;5.486;2023-04-29T09:25:29;9.50;;;2.60;;
78875;SDS011;68253;52.506;5.486;2023-04-29T09:27:56;9.15;;;2.47;;
78875;SDS011;68253;52.506;5.486;2023-04-29T09:30:22;9.30;;;2.38;;
78875;SDS011;68253;52.506;5.486;2023-04-29T09:33:07;7.85;;;2.53;;
78875;SDS011;68253;52.506;5.486;2023-04-29T09:35:34;8.63;;;3.15;;
78875;SDS011;68253;52.506;5.486;2023-04-29T09:38:13;8.48;;;2.80;;
78875;SDS011;68253;52.506;5.486;2023-04-29T09:40:42;8.90;;;2.53;;
78875;SDS011;68253;52.506;5.486;2023-04-29T09:43:12;8.77;;;2.95;;
78875;SDS011;68253;52.506;5.486;2023-04-29T09:45:41;7.65;;;2.42;;
78875;SDS011;68253;52.506;5.486;2023-04-29T09:48:09;7.97;;;2.13;;
78875;SDS011;68253;52.506;5.486;2023-04-29T09:50:38;8.55;;;2.53;;
78875;SDS011;68253;52.506;5.486;2023-04-29T09:53:06;8.50;;;2.70;;
78875;SDS011;68253;52.506;5.486;2023-04-29T09:55:56;9.18;;;2.60;;
78875;SDS011;68253;52.506;5.486;2023-04-29T09:58:27;8.20;;;2.92;;
78875;SDS011;68253;52.506;5.486;2023-04-29T10:00:57;10.65;;;2.60;;
78875;SDS011;68253;52.506;5.486;2023-04-29T10:03:26;8.80;;;2.83;;
78875;SDS011;68253;52.506;5.486;2023-04-29T10:06:01;8.48;;;3.22;;
78875;SDS011;68253;52.506;5.486;2023-04-29T10:08:29;10.35;;;3.15;;
78875;SDS011;68253;52.506;5.486;2023-04-29T10:10:59;9.55;;;3.22;;
78875;SDS011;68253;52.506;5.486;2023-04-29T10:13:27;7.93;;;2.45;;
78875;SDS011;68253;52.506;5.486;2023-04-29T10:16:00;8.30;;;2.60;;
78875;SDS011;68253;52.506;5.486;2023-04-29T10:18:47;9.80;;;3.22;;
78875;SDS011;68253;52.506;5.486;2023-04-29T10:21:18;8.75;;;2.30;;
78875;SDS011;68253;52.506;5.486;2023-04-29T10:23:49;9.95;;;3.10;;
78875;SDS011;68253;52.506;5.486;2023-04-29T10:26:17;8.45;;;2.53;;
78875;SDS011;68253;52.506;5.486;2023-04-29T10:28:45;9.10;;;3.00;;
78875;SDS011;68253;52.506;5.486;2023-04-29T10:31:16;8.45;;;2.75;;
78875;SDS011;68253;52.506;5.486;2023-04-29T10:33:44;9.88;;;2.58;;
78875;SDS011;68253;52.506;5.486;2023-04-29T10:36:11;9.60;;;2.63;;
78875;SDS011;68253;52.506;5.486;2023-04-29T10:38:39;8.32;;;2.63;;
78875;SDS011;68253;52.506;5.486;2023-04-29T10:41:21;9.00;;;2.75;;
78875;SDS011;68253;52.506;5.486;2023-04-29T10:43:51;9.30;;;3.00;;
78875;SDS011;68253;52.506;5.486;2023-04-29T10:46:21;7.82;;;2.88;;
78875;SDS011;68253;52.506;5.486;2023-04-29T10:48:49;10.68;;;2.88;;
78875;SDS011;68253;52.506;5.486;2023-04-29T10:51:30;8.27;;;2.42;;
78875;SDS011;68253;52.506;5.486;2023-04-29T10:54:05;8.90;;;3.05;;
78875;SDS011;68253;52.506;5.486;2023-04-29T10:56:40;7.68;;;2.70;;
78875;SDS011;68253;52.506;5.486;2023-04-29T11:01:52;9.93;;;2.80;;
78875;SDS011;68253;52.506;5.486;2023-04-29T11:04:20;8.98;;;3.03;;
78875;SDS011;68253;52.506;5.486;2023-04-29T11:06:50;10.98;;;2.70;;
78875;SDS011;68253;52.506;5.486;2023-04-29T11:09:24;9.00;;;3.25;;
78875;SDS011;68253;52.506;5.486;2023-04-29T11:17:09;9.35;;;3.05;;
78875;SDS011;68253;52.506;5.486;2023-04-29T11:19:41;8.57;;;2.78;;
78875;SDS011;68253;52.506;5.486;2023-04-29T11:24:57;8.73;;;3.00;;
78875;SDS011;68253;52.506;5.486;2023-04-29T11:27:35;8.00;;;2.75;;
78875;SDS011;68253;52.506;5.486;2023-04-29T11:30:03;8.85;;;2.70;;
78875;SDS011;68253;52.506;5.486;2023-04-29T11:32:32;10.48;;;3.38;;
78875;SDS011;68253;52.506;5.486;2023-04-29T11:35:16;8.65;;;3.40;;
78875;SDS011;68253;52.506;5.486;2023-04-29T11:37:44;8.52;;;2.67;;
78875;SDS011;68253;52.506;5.486;2023-04-29T11:40:11;8.15;;;2.80;;
78875;SDS011;68253;52.506;5.486;2023-04-29T11:42:45;8.27;;;2.38;;
78875;SDS011;68253;52.506;5.486;2023-04-29T11:45:12;10.52;;;3.00;;
78875;SDS011;68253;52.506;5.486;2023-04-29T11:47:46;8.70;;;2.70;;
78875;SDS011;68253;52.506;5.486;2023-04-29T11:50:13;7.53;;;2.50;;
78875;SDS011;68253;52.506;5.486;2023-04-29T11:52:42;8.70;;;2.80;;
78875;SDS011;68253;52.506;5.486;2023-04-29T11:55:09;8.15;;;2.80;;
78875;SDS011;68253;52.506;5.486;2023-04-29T11:57:36;10.52;;;3.50;;
78875;SDS011;68253;52.506;5.486;2023-04-29T12:00:09;9.65;;;3.50;;
78875;SDS011;68253;52.506;5.486;2023-04-29T12:02:38;10.13;;;3.00;;
78875;SDS011;68253;52.506;5.486;2023-04-29T12:05:07;8.85;;;2.90;;
78875;SDS011;68253;52.506;5.486;2023-04-29T12:07:34;9.05;;;2.78;;
78875;SDS011;68253;52.506;5.486;2023-04-29T12:10:01;10.13;;;3.38;;
78875;SDS011;68253;52.506;5.486;2023-04-29T12:12:28;9.95;;;3.63;;
78875;SDS011;68253;52.506;5.486;2023-04-29T12:14:56;8.55;;;2.40;;
78875;SDS011;68253;52.506;5.486;2023-04-29T12:17:22;8.13;;;2.53;;
78875;SDS011;68253;52.506;5.486;2023-04-29T12:19:49;8.75;;;2.83;;
78875;SDS011;68253;52.506;5.486;2023-04-29T12:22:15;8.77;;;2.70;;
78875;SDS011;68253;52.506;5.486;2023-04-29T12:24:41;8.88;;;2.30;;
78875;SDS011;68253;52.506;5.486;2023-04-29T12:27:07;8.52;;;2.45;;
78875;SDS011;68253;52.506;5.486;2023-04-29T12:29:35;7.80;;;2.35;;
78875;SDS011;68253;52.506;5.486;2023-04-29T12:32:01;9.43;;;2.33;;
78875;SDS011;68253;52.506;5.486;2023-04-29T12:34:28;7.20;;;2.08;;
78875;SDS011;68253;52.506;5.486;2023-04-29T12:36:57;10.27;;;2.45;;
78875;SDS011;68253;52.506;5.486;2023-04-29T12:39:24;7.80;;;2.30;;
78875;SDS011;68253;52.506;5.486;2023-04-29T12:41:56;8.02;;;2.03;;
78875;SDS011;68253;52.506;5.486;2023-04-29T12:44:23;7.20;;;2.10;;
78875;SDS011;68253;52.506;5.486;2023-04-29T12:46:50;6.85;;;2.08;;
78875;SDS011;68253;52.506;5.486;2023-04-29T12:49:22;7.30;;;1.60;;
78875;SDS011;68253;52.506;5.486;2023-04-29T12:51:49;7.68;;;2.05;;
78875;SDS011;68253;52.506;5.486;2023-04-29T12:54:15;5.40;;;1.58;;
78875;SDS011;68253;52.506;5.486;2023-04-29T12:56:41;4.65;;;1.38;;
78875;SDS011;68253;52.506;5.486;2023-04-29T12:59:08;6.57;;;2.00;;
78875;SDS011;68253;52.506;5.486;2023-04-29T13:01:35;6.43;;;2.08;;
78875;SDS011;68253;52.506;5.486;2023-04-29T13:04:02;6.07;;;1.52;;
78875;SDS011;68253;52.506;5.486;2023-04-29T13:06:30;5.60;;;1.70;;
78875;SDS011;68253;52.506;5.486;2023-04-29T13:08:57;7.00;;;1.60;;
78875;SDS011;68253;52.506;5.486;2023-04-29T13:11:23;7.95;;;1.65;;
78875;SDS011;68253;52.506;5.486;2023-04-29T13:13:49;6.07;;;1.58;;
78875;SDS011;68253;52.506;5.486;2023-04-29T13:16:16;7.57;;;1.20;;
78875;SDS011;68253;52.506;5.486;2023-04-29T13:18:42;8.60;;;1.70;;
78875;SDS011;68253;52.506;5.486;2023-04-29T13:21:08;7.20;;;1.60;;
78875;SDS011;68253;52.506;5.486;2023-04-29T13:23:34;5.68;;;1.23;;
78875;SDS011;68253;52.506;5.486;2023-04-29T13:26:00;3.83;;;1.13;;
78875;SDS011;68253;52.506;5.486;2023-04-29T13:28:27;4.93;;;1.25;;
78875;SDS011;68253;52.506;5.486;2023-04-29T13:30:53;4.72;;;1.30;;
78875;SDS011;68253;52.506;5.486;2023-04-29T13:33:19;5.68;;;1.25;;
78875;SDS011;68253;52.506;5.486;2023-04-29T13:35:46;4.68;;;1.15;;
78875;SDS011;68253;52.506;5.486;2023-04-29T13:38:13;6.13;;;1.30;;
78875;SDS011;68253;52.506;5.486;2023-04-29T13:40:39;4.93;;;1.20;;
78875;SDS011;68253;52.506;5.486;2023-04-29T13:43:05;3.97;;;1.02;;
78875;SDS011;68253;52.506;5.486;2023-04-29T13:45:32;4.20;;;1.30;;
78875;SDS011;68253;52.506;5.486;2023-04-29T13:48:00;4.85;;;1.27;;
78875;SDS011;68253;52.506;5.486;2023-04-29T13:50:26;5.32;;;1.50;;
78875;SDS011;68253;52.506;5.486;2023-04-29T13:52:54;5.68;;;1.40;;
78875;SDS011;68253;52.506;5.486;2023-04-29T13:55:21;5.97;;;1.67;;
78875;SDS011;68253;52.506;5.486;2023-04-29T13:57:47;5.25;;;1.52;;
78875;SDS011;68253;52.506;5.486;2023-04-29T14:00:13;5.20;;;1.60;;
78875;SDS011;68253;52.506;5.486;2023-04-29T14:02:40;5.97;;;1.50;;
78875;SDS011;68253;52.506;5.486;2023-04-29T14:05:07;4.10;;;1.15;;
78875;SDS011;68253;52.506;5.486;2023-04-29T14:07:34;6.20;;;1.67;;
78875;SDS011;68253;52.506;5.486;2023-04-29T14:10:01;7.10;;;1.75;;
78875;SDS011;68253;52.506;5.486;2023-04-29T14:12:27;6.70;;;1.77;;
78875;SDS011;68253;52.506;5.486;2023-04-29T14:14:53;6.63;;;1.70;;
78875;SDS011;68253;52.506;5.486;2023-04-29T14:17:19;6.03;;;1.45;;
78875;SDS011;68253;52.506;5.486;2023-04-29T14:19:45;6.05;;;1.48;;
78875;SDS011;68253;52.506;5.486;2023-04-29T14:22:11;5.18;;;1.48;;
78875;SDS011;68253;52.506;5.486;2023-04-29T14:24:37;6.53;;;1.55;;
78875;SDS011;68253;52.506;5.486;2023-04-29T14:27:04;4.10;;;1.10;;
78875;SDS011;68253;52.506;5.486;2023-04-29T14:29:31;3.55;;;1.05;;
78875;SDS011;68253;52.506;5.486;2023-04-29T14:31:57;3.92;;;1.08;;
78875;SDS011;68253;52.506;5.486;2023-04-29T14:34:23;4.35;;;0.98;;
78875;SDS011;68253;52.506;5.486;2023-04-29T14:36:49;4.05;;;0.90;;
78875;SDS011;68253;52.506;5.486;2023-04-29T14:39:15;3.88;;;0.98;;
78875;SDS011;68253;52.506;5.486;2023-04-29T14:41:42;2.95;;;1.00;;
78875;SDS011;68253;52.506;5.486;2023-04-29T14:44:08;4.30;;;1.00;;
78875;SDS011;68253;52.506;5.486;2023-04-29T14:46:35;5.03;;;0.80;;
78875;SDS011;68253;52.506;5.486;2023-04-29T14:49:01;2.50;;;0.73;;
78875;SDS011;68253;52.506;5.486;2023-04-29T14:51:28;2.40;;;0.60;;
78875;SDS011;68253;52.506;5.486;2023-04-29T14:53:55;3.42;;;0.50;;
78875;SDS011;68253;52.506;5.486;2023-04-29T14:56:21;2.92;;;0.80;;
78875;SDS011;68253;52.506;5.486;2023-04-29T14:58:47;2.35;;;0.65;;
78875;SDS011;68253;52.506;5.486;2023-04-29T15:01:13;3.25;;;0.70;;
78875;SDS011;68253;52.506;5.486;2023-04-29T15:03:40;2.35;;;0.70;;
78875;SDS011;68253;52.506;5.486;2023-04-29T15:06:06;3.13;;;0.63;;
78875;SDS011;68253;52.506;5.486;2023-04-29T15:08:33;2.50;;;0.50;;
78875;SDS011;68253;52.506;5.486;2023-04-29T15:10:59;3.15;;;0.80;;
78875;SDS011;68253;52.506;5.486;2023-04-29T15:13:25;2.38;;;0.68;;
78875;SDS011;68253;52.506;5.486;2023-04-29T15:15:51;1.70;;;0.50;;
78875;SDS011;68253;52.506;5.486;2023-04-29T15:18:17;4.20;;;0.80;;
78875;SDS011;68253;52.506;5.486;2023-04-29T15:20:43;1.63;;;0.60;;
78875;SDS011;68253;52.506;5.486;2023-04-29T15:23:10;3.55;;;0.68;;
78875;SDS011;68253;52.506;5.486;2023-04-29T15:25:36;3.90;;;0.70;;